sensor_id;sensor_type;location;lat;lon;timestamp;noise_LAeq;noise_LA_min;noise_LA_max;noise_LA01;noise_LA95
64393;Laerm;50712;49.506;10.400;2023-02-26T00:00:13;29.33;27.27;48.08;;
64393;Laerm;50712;49.506;10.400;2023-02-26T00:00:44;28.78;27.23;31.83;;
64393;Laerm;50712;49.506;10.400;2023-02-26T00:01:17;28.87;27.27;42.84;;
64393;Laerm;50712;49.506;10.400;2023-02-26T00:01:48;28.62;27.18;41.38;;
64393;Laerm;50712;49.506;10.400;2023-02-26T00:02:19;28.59;27.19;34.46;;
64393;Laerm;50712;49.506;10.400;2023-02-26T00:02:49;28.52;27.36;30.08;;
64393;Laerm;50712;49.506;10.400;2023-02-26T00:03:20;28.96;27.41;34.13;;
64393;Laerm;50712;49.506;10.400;2023-02-26T00:03:52;28.53;27.12;32.58;;
64393;Laerm;50712;49.506;10.400;2023-02-26T00:04:23;28.59;27.25;32.92;;
64393;Laerm;50712;49.506;10.400;2023-02-26T00:04:53;28.63;27.41;29.93;;
64393;Laerm;50712;49.506;10.400;2023-02-26T00:05:23;28.81;27.64;31.43;;
64393;Laerm;50712;49.506;10.400;2023-02-26T00:05:58;29.25;27.69;44.99;;
64393;Laerm;50712;49.506;10.400;2023-02-26T00:06:35;29.54;26.82;43.75;;
64393;Laerm;50712;49.506;10.400;2023-02-26T00:07:05;29.93;27.70;51.29;;
64393;Laerm;50712;49.506;10.400;2023-02-26T00:07:37;28.77;27.49;31.75;;
64393;Laerm;50712;49.506;10.400;2023-02-26T00:08:08;29.06;27.14;45.16;;
64393;Laerm;50712;49.506;10.400;2023-02-26T00:08:38;28.77;27.59;33.96;;
64393;Laerm;50712;49.506;10.400;2023-02-26T00:09:08;30.05;28.04;40.96;;
64393;Laerm;50712;49.506;10.400;2023-02-26T00:09:39;29.76;27.61;40.71;;
64393;Laerm;50712;49.506;10.400;2023-02-26T00:10:11;30.25;27.63;46.83;;
64393;Laerm;50712;49.506;10.400;2023-02-26T00:10:42;28.88;27.70;33.96;;
64393;Laerm;50712;49.506;10.400;2023-02-26T00:11:13;28.93;27.74;32.94;;
64393;Laerm;50712;49.506;10.400;2023-02-26T00:11:45;29.60;27.56;46.87;;
64393;Laerm;50712;49.506;10.400;2023-02-26T00:12:16;31.97;27.84;37.60;;
64393;Laerm;50712;49.506;10.400;2023-02-26T00:12:46;29.61;27.46;37.70;;
64393;Laerm;50712;49.506;10.400;2023-02-26T00:13:17;28.77;27.56;30.29;;
64393;Laerm;50712;49.506;10.400;2023-02-26T00:13:47;29.00;27.25;31.31;;
64393;Laerm;50712;49.506;10.400;2023-02-26T00:14:18;29.10;27.42;32.86;;
64393;Laerm;50712;49.506;10.400;2023-02-26T00:14:49;28.94;27.65;39.04;;
64393;Laerm;50712;49.506;10.400;2023-02-26T00:15:20;28.67;27.35;32.33;;
64393;Laerm;50712;49.506;10.400;2023-02-26T00:15:55;28.95;27.35;43.32;;
64393;Laerm;50712;49.506;10.400;2023-02-26T00:16:33;29.17;27.61;41.56;;
64393;Laerm;50712;49.506;10.400;2023-02-26T00:18:05;28.84;27.34;39.55;;
64393;Laerm;50712;49.506;10.400;2023-02-26T00:18:36;29.05;27.80;30.70;;
64393;Laerm;50712;49.506;10.400;2023-02-26T00:19:07;28.82;27.51;30.52;;
64393;Laerm;50712;49.506;10.400;2023-02-26T00:19:39;29.19;27.50;37.57;;
64393;Laerm;50712;49.506;10.400;2023-02-26T00:20:11;29.06;27.62;35.15;;
64393;Laerm;50712;49.506;10.400;2023-02-26T00:20:41;29.09;27.58;33.25;;
64393;Laerm;50712;49.506;10.400;2023-02-26T00:21:17;30.07;27.60;34.76;;
64393;Laerm;50712;49.506;10.400;2023-02-26T00:21:48;30.01;27.68;33.65;;
64393;Laerm;50712;49.506;10.400;2023-02-26T00:22:19;29.22;27.61;40.09;;
64393;Laerm;50712;49.506;10.400;2023-02-26T00:23:21;29.68;27.73;40.76;;
64393;Laerm;50712;49.506;10.400;2023-02-26T00:23:53;28.89;27.46;31.70;;
64393;Laerm;50712;49.506;10.400;2023-02-26T00:24:24;28.62;27.43;31.36;;
64393;Laerm;50712;49.506;10.400;2023-02-26T00:24:54;28.85;27.48;37.51;;
64393;Laerm;50712;49.506;10.400;2023-02-26T00:25:25;29.37;27.30;45.65;;
64393;Laerm;50712;49.506;10.400;2023-02-26T00:25:56;28.71;27.45;31.80;;
64393;Laerm;50712;49.506;10.400;2023-02-26T00:26:28;28.67;27.46;33.97;;
64393;Laerm;50712;49.506;10.400;2023-02-26T00:26:59;29.00;27.40;39.28;;
64393;Laerm;50712;49.506;10.400;2023-02-26T00:27:29;28.99;27.71;39.11;;
64393;Laerm;50712;49.506;10.400;2023-02-26T00:28:00;28.81;27.48;32.28;;
64393;Laerm;50712;49.506;10.400;2023-02-26T00:28:31;28.95;27.37;31.06;;
64393;Laerm;50712;49.506;10.400;2023-02-26T00:29:02;28.65;27.25;36.58;;
64393;Laerm;50712;49.506;10.400;2023-02-26T00:29:33;28.64;27.25;34.97;;
64393;Laerm;50712;49.506;10.400;2023-02-26T00:30:05;28.92;27.49;33.36;;
64393;Laerm;50712;49.506;10.400;2023-02-26T00:30:37;43.17;29.53;54.28;;
64393;Laerm;50712;49.506;10.400;2023-02-26T00:31:08;47.05;36.12;55.62;;
64393;Laerm;50712;49.506;10.400;2023-02-26T00:31:39;42.51;33.55;50.58;;
64393;Laerm;50712;49.506;10.400;2023-02-26T00:32:10;36.87;29.94;42.76;;
64393;Laerm;50712;49.506;10.400;2023-02-26T00:32:41;32.55;28.70;42.11;;
64393;Laerm;50712;49.506;10.400;2023-02-26T00:33:11;31.33;28.38;41.98;;
64393;Laerm;50712;49.506;10.400;2023-02-26T00:33:42;29.61;27.45;40.31;;
64393;Laerm;50712;49.506;10.400;2023-02-26T00:34:13;29.09;27.63;40.67;;
64393;Laerm;50712;49.506;10.400;2023-02-26T00:34:46;29.01;27.63;32.40;;
64393;Laerm;50712;49.506;10.400;2023-02-26T00:35:17;28.97;27.59;30.39;;
64393;Laerm;50712;49.506;10.400;2023-02-26T00:35:48;29.19;27.64;34.49;;
64393;Laerm;50712;49.506;10.400;2023-02-26T00:37:51;28.68;27.51;30.56;;
64393;Laerm;50712;49.506;10.400;2023-02-26T00:39:50;28.79;27.20;33.65;;
64393;Laerm;50712;49.506;10.400;2023-02-26T00:40:43;28.72;27.48;31.69;;
64393;Laerm;50712;49.506;10.400;2023-02-26T00:41:14;28.67;27.54;29.89;;
64393;Laerm;50712;49.506;10.400;2023-02-26T00:41:45;28.76;27.37;30.17;;
64393;Laerm;50712;49.506;10.400;2023-02-26T00:42:16;29.06;27.78;42.21;;
64393;Laerm;50712;49.506;10.400;2023-02-26T00:42:46;29.87;27.72;47.96;;
64393;Laerm;50712;49.506;10.400;2023-02-26T00:43:22;28.73;27.57;30.46;;
64393;Laerm;50712;49.506;10.400;2023-02-26T00:43:53;28.77;27.16;30.47;;
64393;Laerm;50712;49.506;10.400;2023-02-26T00:44:24;28.91;27.41;38.30;;
64393;Laerm;50712;49.506;10.400;2023-02-26T00:44:55;28.76;27.45;30.17;;
64393;Laerm;50712;49.506;10.400;2023-02-26T00:45:26;28.99;27.51;35.05;;
64393;Laerm;50712;49.506;10.400;2023-02-26T00:46:54;30.93;27.32;54.56;;
64393;Laerm;50712;49.506;10.400;2023-02-26T00:47:33;29.24;27.68;37.18;;
64393;Laerm;50712;49.506;10.400;2023-02-26T00:48:26;28.83;27.59;31.97;;
64393;Laerm;50712;49.506;10.400;2023-02-26T00:49:26;28.83;27.62;31.57;;
64393;Laerm;50712;49.506;10.400;2023-02-26T00:50:10;28.95;27.71;38.99;;
64393;Laerm;50712;49.506;10.400;2023-02-26T00:50:53;28.87;27.46;30.35;;
64393;Laerm;50712;49.506;10.400;2023-02-26T00:52:12;29.38;27.67;32.83;;
64393;Laerm;50712;49.506;10.400;2023-02-26T00:53:27;29.12;27.83;31.74;;
64393;Laerm;50712;49.506;10.400;2023-02-26T00:54:19;28.91;27.54;34.37;;
64393;Laerm;50712;49.506;10.400;2023-02-26T00:54:50;29.16;27.75;34.83;;
64393;Laerm;50712;49.506;10.400;2023-02-26T00:55:22;28.89;27.67;35.69;;
64393;Laerm;50712;49.506;10.400;2023-02-26T00:55:53;28.80;27.56;31.34;;
64393;Laerm;50712;49.506;10.400;2023-02-26T00:56:24;29.13;27.86;38.60;;
64393;Laerm;50712;49.506;10.400;2023-02-26T00:56:56;29.48;27.98;32.63;;
64393;Laerm;50712;49.506;10.400;2023-02-26T00:57:30;29.39;27.81;39.04;;
64393;Laerm;50712;49.506;10.400;2023-02-26T00:58:01;28.83;27.38;30.27;;
64393;Laerm;50712;49.506;10.400;2023-02-26T00:58:33;28.83;27.37;30.84;;
64393;Laerm;50712;49.506;10.400;2023-02-26T00:59:03;28.92;27.61;39.66;;
64393;Laerm;50712;49.506;10.400;2023-02-26T00:59:33;29.18;27.20;43.19;;
64393;Laerm;50712;49.506;10.400;2023-02-26T01:00:05;29.05;27.82;38.83;;
64393;Laerm;50712;49.506;10.400;2023-02-26T01:00:37;29.01;27.44;34.80;;
64393;Laerm;50712;49.506;10.400;2023-02-26T01:01:07;29.05;27.78;31.59;;
64393;Laerm;50712;49.506;10.400;2023-02-26T01:01:38;28.94;27.67;37.12;;
64393;Laerm;50712;49.506;10.400;2023-02-26T01:02:08;28.86;27.53;35.04;;
64393;Laerm;50712;49.506;10.400;2023-02-26T01:02:39;29.02;27.66;31.52;;
64393;Laerm;50712;49.506;10.400;2023-02-26T01:03:10;29.19;27.33;39.99;;
64393;Laerm;50712;49.506;10.400;2023-02-26T01:04:12;29.33;27.60;38.29;;
64393;Laerm;50712;49.506;10.400;2023-02-26T01:04:43;28.99;27.44;33.32;;
64393;Laerm;50712;49.506;10.400;2023-02-26T01:05:16;29.28;27.67;34.10;;
64393;Laerm;50712;49.506;10.400;2023-02-26T01:05:46;29.24;27.75;36.43;;
64393;Laerm;50712;49.506;10.400;2023-02-26T01:06:19;29.16;27.58;31.23;;
64393;Laerm;50712;49.506;10.400;2023-02-26T01:06:53;29.13;27.57;35.88;;
64393;Laerm;50712;49.506;10.400;2023-02-26T01:08:17;29.59;27.47;37.89;;
64393;Laerm;50712;49.506;10.400;2023-02-26T01:08:58;29.06;27.61;32.78;;
64393;Laerm;50712;49.506;10.400;2023-02-26T01:09:33;29.72;27.68;47.39;;
64393;Laerm;50712;49.506;10.400;2023-02-26T01:10:04;29.23;27.58;39.95;;
64393;Laerm;50712;49.506;10.400;2023-02-26T01:10:35;29.24;27.79;32.66;;
64393;Laerm;50712;49.506;10.400;2023-02-26T01:11:05;33.44;27.72;37.80;;
64393;Laerm;50712;49.506;10.400;2023-02-26T01:11:37;29.42;27.77;34.01;;
64393;Laerm;50712;49.506;10.400;2023-02-26T01:12:10;28.78;27.41;32.64;;
64393;Laerm;50712;49.506;10.400;2023-02-26T01:12:42;29.17;27.65;31.52;;
64393;Laerm;50712;49.506;10.400;2023-02-26T01:13:13;28.65;27.46;32.78;;
64393;Laerm;50712;49.506;10.400;2023-02-26T01:13:44;29.02;27.54;32.71;;
64393;Laerm;50712;49.506;10.400;2023-02-26T01:14:14;29.04;27.37;30.36;;
64393;Laerm;50712;49.506;10.400;2023-02-26T01:14:45;28.75;27.52;30.31;;
64393;Laerm;50712;49.506;10.400;2023-02-26T01:15:16;30.29;27.45;50.34;;
64393;Laerm;50712;49.506;10.400;2023-02-26T01:15:51;28.80;27.64;29.96;;
64393;Laerm;50712;49.506;10.400;2023-02-26T01:16:27;28.72;27.57;30.01;;
64393;Laerm;50712;49.506;10.400;2023-02-26T01:18:37;28.83;27.48;31.61;;
64393;Laerm;50712;49.506;10.400;2023-02-26T01:19:22;28.78;27.67;30.46;;
64393;Laerm;50712;49.506;10.400;2023-02-26T01:20:43;29.87;27.46;51.61;;
64393;Laerm;50712;49.506;10.400;2023-02-26T01:21:32;30.10;27.78;47.92;;
64393;Laerm;50712;49.506;10.400;2023-02-26T01:23:02;29.87;27.47;49.96;;
64393;Laerm;50712;49.506;10.400;2023-02-26T01:23:37;28.93;27.52;30.70;;
64393;Laerm;50712;49.506;10.400;2023-02-26T01:24:13;28.90;27.57;31.97;;
64393;Laerm;50712;49.506;10.400;2023-02-26T01:24:47;29.26;27.77;44.50;;
64393;Laerm;50712;49.506;10.400;2023-02-26T01:25:43;29.67;27.53;50.28;;
64393;Laerm;50712;49.506;10.400;2023-02-26T01:26:25;28.96;27.52;34.76;;
64393;Laerm;50712;49.506;10.400;2023-02-26T01:26:56;38.26;27.56;50.10;;
64393;Laerm;50712;49.506;10.400;2023-02-26T01:27:27;40.21;30.45;53.48;;
64393;Laerm;50712;49.506;10.400;2023-02-26T01:27:57;39.45;31.46;58.89;;
64393;Laerm;50712;49.506;10.400;2023-02-26T01:28:28;42.50;27.78;56.37;;
64393;Laerm;50712;49.506;10.400;2023-02-26T01:28:59;28.75;27.37;30.02;;
64393;Laerm;50712;49.506;10.400;2023-02-26T01:29:30;28.64;27.57;30.11;;
64393;Laerm;50712;49.506;10.400;2023-02-26T01:30:00;29.11;27.44;44.01;;
64393;Laerm;50712;49.506;10.400;2023-02-26T01:30:31;29.19;27.44;44.31;;
64393;Laerm;50712;49.506;10.400;2023-02-26T01:31:04;28.56;27.23;29.68;;
64393;Laerm;50712;49.506;10.400;2023-02-26T01:31:49;28.72;27.35;32.35;;
64393;Laerm;50712;49.506;10.400;2023-02-26T01:32:47;28.96;27.58;37.62;;
64393;Laerm;50712;49.506;10.400;2023-02-26T01:33:28;34.49;27.56;63.38;;
64393;Laerm;50712;49.506;10.400;2023-02-26T01:34:17;28.70;27.38;30.49;;
64393;Laerm;50712;49.506;10.400;2023-02-26T01:35:01;28.79;27.60;32.44;;
64393;Laerm;50712;49.506;10.400;2023-02-26T01:35:45;30.01;27.47;50.00;;
64393;Laerm;50712;49.506;10.400;2023-02-26T01:36:31;28.94;27.33;31.27;;
64393;Laerm;50712;49.506;10.400;2023-02-26T01:37:24;28.97;27.24;31.63;;
64393;Laerm;50712;49.506;10.400;2023-02-26T01:38:26;30.30;27.57;52.27;;
64393;Laerm;50712;49.506;10.400;2023-02-26T01:39:28;28.67;27.46;30.15;;
64393;Laerm;50712;49.506;10.400;2023-02-26T01:42:36;29.40;27.65;31.51;;
64393;Laerm;50712;49.506;10.400;2023-02-26T01:43:12;30.80;27.72;51.87;;
64393;Laerm;50712;49.506;10.400;2023-02-26T01:45:03;29.14;27.64;40.51;;
64393;Laerm;50712;49.506;10.400;2023-02-26T01:45:35;39.32;27.97;49.70;;
64393;Laerm;50712;49.506;10.400;2023-02-26T01:48:11;28.68;27.51;33.08;;
64393;Laerm;50712;49.506;10.400;2023-02-26T01:48:54;29.34;27.52;48.18;;
64393;Laerm;50712;49.506;10.400;2023-02-26T01:49:28;29.01;27.34;42.89;;
64393;Laerm;50712;49.506;10.400;2023-02-26T01:50:11;28.55;27.33;30.42;;
64393;Laerm;50712;49.506;10.400;2023-02-26T01:50:43;39.19;27.99;52.05;;
64393;Laerm;50712;49.506;10.400;2023-02-26T01:52:00;42.03;31.86;50.07;;
64393;Laerm;50712;49.506;10.400;2023-02-26T01:53:18;32.02;28.08;40.78;;
64393;Laerm;50712;49.506;10.400;2023-02-26T01:54:39;29.00;27.53;32.57;;
64393;Laerm;50712;49.506;10.400;2023-02-26T01:55:09;28.71;27.01;37.93;;
64393;Laerm;50712;49.506;10.400;2023-02-26T01:55:42;29.34;27.28;46.50;;
64393;Laerm;50712;49.506;10.400;2023-02-26T01:56:16;28.66;27.19;41.05;;
64393;Laerm;50712;49.506;10.400;2023-02-26T01:56:53;28.61;27.05;40.19;;
64393;Laerm;50712;49.506;10.400;2023-02-26T01:57:24;28.54;27.28;38.73;;
64393;Laerm;50712;49.506;10.400;2023-02-26T01:57:58;28.42;27.40;30.76;;
64393;Laerm;50712;49.506;10.400;2023-02-26T01:58:33;29.47;27.54;44.44;;
64393;Laerm;50712;49.506;10.400;2023-02-26T01:59:05;28.56;27.33;29.76;;
64393;Laerm;50712;49.506;10.400;2023-02-26T01:59:43;28.57;27.18;35.90;;
64393;Laerm;50712;49.506;10.400;2023-02-26T02:00:15;28.52;27.29;33.16;;
64393;Laerm;50712;49.506;10.400;2023-02-26T02:00:45;28.46;27.07;29.73;;
64393;Laerm;50712;49.506;10.400;2023-02-26T02:01:16;28.39;27.31;32.42;;
64393;Laerm;50712;49.506;10.400;2023-02-26T02:01:46;28.35;27.34;29.52;;
64393;Laerm;50712;49.506;10.400;2023-02-26T02:02:19;28.47;27.23;32.31;;
64393;Laerm;50712;49.506;10.400;2023-02-26T02:02:50;28.48;27.21;39.65;;
64393;Laerm;50712;49.506;10.400;2023-02-26T02:03:23;29.48;27.25;42.83;;
64393;Laerm;50712;49.506;10.400;2023-02-26T02:03:55;28.58;27.45;40.94;;
64393;Laerm;50712;49.506;10.400;2023-02-26T02:04:25;28.44;26.87;32.19;;
64393;Laerm;50712;49.506;10.400;2023-02-26T02:04:57;28.47;27.31;33.39;;
64393;Laerm;50712;49.506;10.400;2023-02-26T02:05:34;30.33;27.11;50.67;;
64393;Laerm;50712;49.506;10.400;2023-02-26T02:06:13;28.82;27.43;40.69;;
64393;Laerm;50712;49.506;10.400;2023-02-26T02:06:45;32.85;27.30;59.37;;
64393;Laerm;50712;49.506;10.400;2023-02-26T02:07:17;39.09;30.40;48.40;;
64393;Laerm;50712;49.506;10.400;2023-02-26T02:07:49;39.44;30.69;48.12;;
64393;Laerm;50712;49.506;10.400;2023-02-26T02:08:20;35.67;29.26;44.71;;
64393;Laerm;50712;49.506;10.400;2023-02-26T02:08:52;33.59;28.94;40.18;;
64393;Laerm;50712;49.506;10.400;2023-02-26T02:09:22;31.00;27.89;40.06;;
64393;Laerm;50712;49.506;10.400;2023-02-26T02:09:53;29.48;27.63;41.73;;
64393;Laerm;50712;49.506;10.400;2023-02-26T02:10:23;28.90;27.35;31.14;;
64393;Laerm;50712;49.506;10.400;2023-02-26T02:11:24;28.82;27.42;35.85;;
64393;Laerm;50712;49.506;10.400;2023-02-26T02:12:06;28.74;27.54;32.08;;
64393;Laerm;50712;49.506;10.400;2023-02-26T02:13:04;29.07;27.57;41.50;;
64393;Laerm;50712;49.506;10.400;2023-02-26T02:14:33;29.02;27.46;41.14;;
64393;Laerm;50712;49.506;10.400;2023-02-26T02:15:21;29.00;27.52;42.77;;
64393;Laerm;50712;49.506;10.400;2023-02-26T02:16:35;28.81;27.45;39.11;;
64393;Laerm;50712;49.506;10.400;2023-02-26T02:17:08;29.99;27.32;41.04;;
64393;Laerm;50712;49.506;10.400;2023-02-26T02:18:26;28.84;27.20;31.59;;
64393;Laerm;50712;49.506;10.400;2023-02-26T02:22:45;28.81;27.36;40.03;;
64393;Laerm;50712;49.506;10.400;2023-02-26T02:23:31;28.68;27.22;38.96;;
64393;Laerm;50712;49.506;10.400;2023-02-26T02:24:16;28.90;27.46;46.36;;
64393;Laerm;50712;49.506;10.400;2023-02-26T02:26:01;28.87;27.30;43.53;;
64393;Laerm;50712;49.506;10.400;2023-02-26T02:27:03;28.89;27.40;41.34;;
64393;Laerm;50712;49.506;10.400;2023-02-26T02:29:31;28.90;27.32;42.57;;
64393;Laerm;50712;49.506;10.400;2023-02-26T02:31:16;28.74;27.46;33.60;;
64393;Laerm;50712;49.506;10.400;2023-02-26T02:32:35;29.11;27.51;35.60;;
64393;Laerm;50712;49.506;10.400;2023-02-26T02:33:13;28.99;27.62;30.51;;
64393;Laerm;50712;49.506;10.400;2023-02-26T02:34:06;28.67;27.50;34.23;;
64393;Laerm;50712;49.506;10.400;2023-02-26T02:34:51;29.64;27.21;51.90;;
64393;Laerm;50712;49.506;10.400;2023-02-26T02:35:32;28.57;27.42;29.76;;
64393;Laerm;50712;49.506;10.400;2023-02-26T02:36:12;28.79;27.27;43.68;;
64393;Laerm;50712;49.506;10.400;2023-02-26T02:36:55;28.64;27.25;30.32;;
64393;Laerm;50712;49.506;10.400;2023-02-26T02:37:36;28.87;27.33;44.72;;
64393;Laerm;50712;49.506;10.400;2023-02-26T02:38:19;29.28;27.37;47.05;;
64393;Laerm;50712;49.506;10.400;2023-02-26T02:38:56;29.40;27.30;50.31;;
64393;Laerm;50712;49.506;10.400;2023-02-26T02:39:54;34.29;27.44;48.46;;
64393;Laerm;50712;49.506;10.400;2023-02-26T02:40:33;43.94;35.51;50.94;;
64393;Laerm;50712;49.506;10.400;2023-02-26T02:41:24;40.98;30.52;63.15;;
64393;Laerm;50712;49.506;10.400;2023-02-26T02:43:13;37.18;30.75;45.06;;
64393;Laerm;50712;49.506;10.400;2023-02-26T02:43:44;33.28;28.49;40.37;;
64393;Laerm;50712;49.506;10.400;2023-02-26T02:44:22;31.52;28.28;40.58;;
64393;Laerm;50712;49.506;10.400;2023-02-26T02:44:57;29.04;27.57;34.28;;
64393;Laerm;50712;49.506;10.400;2023-02-26T02:45:45;30.51;27.68;54.62;;
64393;Laerm;50712;49.506;10.400;2023-02-26T02:46:28;29.12;27.31;34.82;;
64393;Laerm;50712;49.506;10.400;2023-02-26T02:47:00;29.38;27.73;34.59;;
64393;Laerm;50712;49.506;10.400;2023-02-26T02:47:36;36.16;29.62;43.69;;
64393;Laerm;50712;49.506;10.400;2023-02-26T02:48:13;35.98;29.51;45.58;;
64393;Laerm;50712;49.506;10.400;2023-02-26T02:48:53;32.99;28.41;42.48;;
64393;Laerm;50712;49.506;10.400;2023-02-26T02:49:32;30.27;27.86;42.97;;
64393;Laerm;50712;49.506;10.400;2023-02-26T02:50:22;28.89;27.71;38.67;;
64393;Laerm;50712;49.506;10.400;2023-02-26T02:51:00;29.03;27.52;37.21;;
64393;Laerm;50712;49.506;10.400;2023-02-26T02:51:36;28.80;27.46;34.25;;
64393;Laerm;50712;49.506;10.400;2023-02-26T02:52:16;28.72;27.51;31.56;;
64393;Laerm;50712;49.506;10.400;2023-02-26T02:53:01;31.90;27.48;57.24;;
64393;Laerm;50712;49.506;10.400;2023-02-26T02:53:43;31.15;27.39;56.27;;
64393;Laerm;50712;49.506;10.400;2023-02-26T02:54:23;28.64;27.30;30.78;;
64393;Laerm;50712;49.506;10.400;2023-02-26T02:55:05;28.77;27.38;29.92;;
64393;Laerm;50712;49.506;10.400;2023-02-26T02:55:45;30.48;27.57;52.87;;
64393;Laerm;50712;49.506;10.400;2023-02-26T02:56:22;30.39;27.52;52.26;;
64393;Laerm;50712;49.506;10.400;2023-02-26T02:57:03;28.78;27.47;37.90;;
64393;Laerm;50712;49.506;10.400;2023-02-26T02:57:43;29.45;27.46;48.66;;
64393;Laerm;50712;49.506;10.400;2023-02-26T02:59:01;28.86;27.40;30.31;;
64393;Laerm;50712;49.506;10.400;2023-02-26T02:59:41;28.78;27.47;31.70;;
64393;Laerm;50712;49.506;10.400;2023-02-26T03:00:14;28.90;27.16;41.55;;
64393;Laerm;50712;49.506;10.400;2023-02-26T03:00:51;29.01;27.58;31.05;;
64393;Laerm;50712;49.506;10.400;2023-02-26T03:02:00;29.13;27.44;41.54;;
64393;Laerm;50712;49.506;10.400;2023-02-26T03:04:13;28.86;27.21;36.68;;
64393;Laerm;50712;49.506;10.400;2023-02-26T03:04:45;28.90;27.63;37.67;;
64393;Laerm;50712;49.506;10.400;2023-02-26T03:05:46;28.73;27.42;32.64;;
64393;Laerm;50712;49.506;10.400;2023-02-26T03:06:16;28.70;27.49;29.97;;
64393;Laerm;50712;49.506;10.400;2023-02-26T03:06:47;28.90;27.42;32.02;;
64393;Laerm;50712;49.506;10.400;2023-02-26T03:07:22;28.99;27.51;30.22;;
64393;Laerm;50712;49.506;10.400;2023-02-26T03:08:31;28.74;27.70;29.94;;
64393;Laerm;50712;49.506;10.400;2023-02-26T03:09:04;28.84;27.57;30.57;;
64393;Laerm;50712;49.506;10.400;2023-02-26T03:09:35;28.86;27.49;30.10;;
64393;Laerm;50712;49.506;10.400;2023-02-26T03:10:06;28.74;27.68;29.97;;
64393;Laerm;50712;49.506;10.400;2023-02-26T03:10:38;28.74;27.54;40.39;;
64393;Laerm;50712;49.506;10.400;2023-02-26T03:11:11;28.64;27.21;31.70;;
64393;Laerm;50712;49.506;10.400;2023-02-26T03:11:42;28.60;27.66;29.80;;
64393;Laerm;50712;49.506;10.400;2023-02-26T03:12:13;28.84;27.50;43.14;;
64393;Laerm;50712;49.506;10.400;2023-02-26T03:12:46;28.81;27.33;30.10;;
64393;Laerm;50712;49.506;10.400;2023-02-26T03:13:19;28.86;27.55;30.18;;
64393;Laerm;50712;49.506;10.400;2023-02-26T03:13:52;28.78;27.46;29.96;;
64393;Laerm;50712;49.506;10.400;2023-02-26T03:14:28;29.07;27.68;30.93;;
64393;Laerm;50712;49.506;10.400;2023-02-26T03:15:00;28.97;27.66;39.80;;
64393;Laerm;50712;49.506;10.400;2023-02-26T03:15:44;28.67;27.45;29.94;;
64393;Laerm;50712;49.506;10.400;2023-02-26T03:17:27;28.60;27.27;30.19;;
64393;Laerm;50712;49.506;10.400;2023-02-26T03:18:12;28.59;27.45;35.16;;
64393;Laerm;50712;49.506;10.400;2023-02-26T03:20:34;28.61;27.22;30.31;;
64393;Laerm;50712;49.506;10.400;2023-02-26T03:21:14;28.74;27.18;30.32;;
64393;Laerm;50712;49.506;10.400;2023-02-26T03:23:37;31.18;27.78;49.57;;
64393;Laerm;50712;49.506;10.400;2023-02-26T03:25:11;28.78;27.54;40.03;;
64393;Laerm;50712;49.506;10.400;2023-02-26T03:25:49;28.64;27.32;30.18;;
64393;Laerm;50712;49.506;10.400;2023-02-26T03:26:51;29.07;27.39;47.86;;
64393;Laerm;50712;49.506;10.400;2023-02-26T03:27:36;31.32;27.59;55.41;;
64393;Laerm;50712;49.506;10.400;2023-02-26T03:28:43;30.04;27.46;35.17;;
64393;Laerm;50712;49.506;10.400;2023-02-26T03:29:55;28.78;27.17;44.98;;
64393;Laerm;50712;49.506;10.400;2023-02-26T03:30:47;28.62;27.43;30.00;;
64393;Laerm;50712;49.506;10.400;2023-02-26T03:31:26;28.73;27.62;36.20;;
64393;Laerm;50712;49.506;10.400;2023-02-26T03:32:02;29.23;27.12;47.39;;
64393;Laerm;50712;49.506;10.400;2023-02-26T03:32:50;29.16;27.39;49.44;;
64393;Laerm;50712;49.506;10.400;2023-02-26T03:34:18;28.76;27.37;30.01;;
64393;Laerm;50712;49.506;10.400;2023-02-26T03:35:13;29.47;27.62;49.00;;
64393;Laerm;50712;49.506;10.400;2023-02-26T03:36:08;28.97;27.57;32.53;;
64393;Laerm;50712;49.506;10.400;2023-02-26T03:36:50;29.30;27.33;48.75;;
64393;Laerm;50712;49.506;10.400;2023-02-26T03:37:33;28.64;27.17;29.80;;
64393;Laerm;50712;49.506;10.400;2023-02-26T03:38:12;28.58;27.43;29.67;;
64393;Laerm;50712;49.506;10.400;2023-02-26T03:38:53;29.55;27.59;48.25;;
64393;Laerm;50712;49.506;10.400;2023-02-26T03:39:37;28.80;27.46;39.82;;
64393;Laerm;50712;49.506;10.400;2023-02-26T03:40:16;29.12;27.68;35.20;;
64393;Laerm;50712;49.506;10.400;2023-02-26T03:41:03;30.30;27.37;51.96;;
64393;Laerm;50712;49.506;10.400;2023-02-26T03:41:44;28.66;27.23;31.29;;
64393;Laerm;50712;49.506;10.400;2023-02-26T03:42:29;37.62;28.09;50.87;;
64393;Laerm;50712;49.506;10.400;2023-02-26T03:43:08;36.59;30.08;46.78;;
64393;Laerm;50712;49.506;10.400;2023-02-26T03:43:55;35.39;29.01;45.14;;
64393;Laerm;50712;49.506;10.400;2023-02-26T03:44:47;34.11;28.71;41.46;;
64393;Laerm;50712;49.506;10.400;2023-02-26T03:45:32;30.92;27.91;37.34;;
64393;Laerm;50712;49.506;10.400;2023-02-26T03:46:08;33.90;27.48;60.69;;
64393;Laerm;50712;49.506;10.400;2023-02-26T03:46:47;28.76;27.59;31.40;;
64393;Laerm;50712;49.506;10.400;2023-02-26T03:47:51;28.68;27.29;30.00;;
64393;Laerm;50712;49.506;10.400;2023-02-26T03:48:25;28.78;27.71;29.93;;
64393;Laerm;50712;49.506;10.400;2023-02-26T03:49:03;28.94;27.42;34.60;;
64393;Laerm;50712;49.506;10.400;2023-02-26T03:49:43;29.72;28.00;39.28;;
64393;Laerm;50712;49.506;10.400;2023-02-26T03:50:27;30.96;27.99;53.16;;
64393;Laerm;50712;49.506;10.400;2023-02-26T03:51:17;43.40;28.34;52.42;;
64393;Laerm;50712;49.506;10.400;2023-02-26T03:52:08;41.45;29.52;49.39;;
64393;Laerm;50712;49.506;10.400;2023-02-26T03:52:52;30.67;28.00;37.10;;
64393;Laerm;50712;49.506;10.400;2023-02-26T03:54:09;29.22;27.45;47.84;;
64393;Laerm;50712;49.506;10.400;2023-02-26T03:54:52;38.29;27.95;66.40;;
64393;Laerm;50712;49.506;10.400;2023-02-26T03:55:47;30.50;28.02;36.98;;
64393;Laerm;50712;49.506;10.400;2023-02-26T03:56:44;29.31;27.75;33.64;;
64393;Laerm;50712;49.506;10.400;2023-02-26T03:57:34;29.15;27.64;34.89;;
64393;Laerm;50712;49.506;10.400;2023-02-26T03:58:21;29.84;27.30;52.01;;
64393;Laerm;50712;49.506;10.400;2023-02-26T03:59:07;29.27;27.38;44.97;;
64393;Laerm;50712;49.506;10.400;2023-02-26T03:59:50;28.84;27.43;39.22;;
64393;Laerm;50712;49.506;10.400;2023-02-26T04:00:46;29.65;27.73;38.68;;
64393;Laerm;50712;49.506;10.400;2023-02-26T04:01:22;28.90;27.52;37.85;;
64393;Laerm;50712;49.506;10.400;2023-02-26T04:02:41;29.20;27.87;40.67;;
64393;Laerm;50712;49.506;10.400;2023-02-26T04:03:24;29.01;27.62;34.00;;
64393;Laerm;50712;49.506;10.400;2023-02-26T04:04:08;29.08;27.60;37.20;;
64393;Laerm;50712;49.506;10.400;2023-02-26T04:04:51;29.02;27.80;32.33;;
64393;Laerm;50712;49.506;10.400;2023-02-26T04:05:27;29.02;27.60;34.47;;
64393;Laerm;50712;49.506;10.400;2023-02-26T04:05:59;29.08;27.81;32.62;;
64393;Laerm;50712;49.506;10.400;2023-02-26T04:06:31;29.27;27.77;32.35;;
64393;Laerm;50712;49.506;10.400;2023-02-26T04:07:05;36.97;28.10;52.42;;